Terminal Aerodrome Forecast
Issued by NWS Quad Cities IA IL

Home | Current Version | Previous Version | Text Only | Print | Product List | Glossary On
Versions: 1 2 3 4 5 6 7 8 9 10 11 12 13 14 15 16 17
564
FTUS43 KDVN 091817 AAA
TAFDBQ
TAF AMD
KDBQ 091817Z 0918/1018 33015G21KT P6SM VCSH FEW020 BKN035
      TEMPO 0918/0921 P6SM BKN025
     FM100000 32015G20KT P6SM BKN035
     FM100600 32013KT P6SM SCT035=

USA.gov is the U.S. government's official web portal to all federal, state and local government web resources and services.